Terminal Aerodrome Forecast
Issued by NWS Tulsa, OK

Home | Current Version | Previous Version | Text Only | Print | Product List | Glossary On
Versions: 1 2 3 4 5 6 7 8 9 10 11 12 13 14
000
FTUS44 KTSA 301720
TAFFSM
TAF
KFSM 301720Z 3018/3118 00000KT P6SM VCTS BKN060CB
     FM310200 09003KT P6SM BKN250 PROB30 3106/3112 6SM -TSRA
      BKN040CB
     FM311400 VRB05KT P6SM BKN250=

USA.gov is the U.S. government's official web portal to all federal, state and local government web resources and services.